sensor_id;sensor_type;location;lat;lon;timestamp;pressure;altitude;pressure_sealevel;temperature;humidity
79415;BME280;68864;44.972;19.612;2024-01-10T00:00:47;102497.72;;;-5.08;82.72
79415;BME280;68864;44.972;19.612;2024-01-10T00:03:14;102487.06;;;-5.10;83.11
79415;BME280;68864;44.972;19.612;2024-01-10T00:05:41;102490.81;;;-5.04;82.56
79415;BME280;68864;44.972;19.612;2024-01-10T00:08:08;102497.28;;;-4.99;82.58
79415;BME280;68864;44.972;19.612;2024-01-10T00:10:35;102488.50;;;-5.01;82.09
79415;BME280;68864;44.972;19.612;2024-01-10T00:13:02;102488.50;;;-5.01;82.13
79415;BME280;68864;44.972;19.612;2024-01-10T00:15:30;102476.16;;;-5.03;82.83
79415;BME280;68864;44.972;19.612;2024-01-10T00:17:57;102494.34;;;-5.04;82.11
79415;BME280;68864;44.972;19.612;2024-01-10T00:20:24;102487.03;;;-5.03;81.79
79415;BME280;68864;44.972;19.612;2024-01-10T00:22:51;102487.25;;;-5.05;82.64
79415;BME280;68864;44.972;19.612;2024-01-10T00:25:18;102487.25;;;-5.11;82.46
79415;BME280;68864;44.972;19.612;2024-01-10T00:27:45;102492.28;;;-5.08;82.69
79415;BME280;68864;44.972;19.612;2024-01-10T00:30:12;102489.56;;;-5.08;82.94
79415;BME280;68864;44.972;19.612;2024-01-10T00:32:40;102497.72;;;-5.08;82.12
79415;BME280;68864;44.972;19.612;2024-01-10T00:35:07;102492.09;;;-5.13;82.99
79415;BME280;68864;44.972;19.612;2024-01-10T00:37:36;102495.00;;;-5.08;82.52
79415;BME280;68864;44.972;19.612;2024-01-10T00:40:03;102493.75;;;-5.06;82.36
79415;BME280;68864;44.972;19.612;2024-01-10T00:42:30;102494.38;;;-5.17;82.70
79415;BME280;68864;44.972;19.612;2024-01-10T00:44:57;102491.47;;;-5.15;82.43
79415;BME280;68864;44.972;19.612;2024-01-10T00:47:24;102494.19;;;-5.15;82.05
79415;BME280;68864;44.972;19.612;2024-01-10T00:49:52;102514.88;;;-5.08;82.19
79415;BME280;68864;44.972;19.612;2024-01-10T00:52:19;102503.19;;;-5.15;82.39
79415;BME280;68864;44.972;19.612;2024-01-10T00:54:46;102502.34;;;-5.22;82.76
79415;BME280;68864;44.972;19.612;2024-01-10T00:57:13;102512.19;;;-5.21;82.47
79415;BME280;68864;44.972;19.612;2024-01-10T00:59:40;102511.34;;;-5.22;82.01
79415;BME280;68864;44.972;19.612;2024-01-10T01:02:07;102507.78;;;-5.22;82.37
79415;BME280;68864;44.972;19.612;2024-01-10T01:04:34;102506.53;;;-5.26;82.31
79415;BME280;68864;44.972;19.612;2024-01-10T01:07:03;102514.47;;;-5.25;82.78
79415;BME280;68864;44.972;19.612;2024-01-10T01:09:29;102505.91;;;-5.28;81.92
79415;BME280;68864;44.972;19.612;2024-01-10T01:11:56;102509.03;;;-5.25;82.69
79415;BME280;68864;44.972;19.612;2024-01-10T01:14:23;102506.75;;;-5.28;82.51
79415;BME280;68864;44.972;19.612;2024-01-10T01:16:50;102504.03;;;-5.28;82.21
79415;BME280;68864;44.972;19.612;2024-01-10T01:19:17;102504.41;;;-5.17;82.02
79415;BME280;68864;44.972;19.612;2024-01-10T01:21:44;102505.91;;;-5.22;82.77
79415;BME280;68864;44.972;19.612;2024-01-10T01:24:12;102503.38;;;-5.23;82.17
79415;BME280;68864;44.972;19.612;2024-01-10T01:26:39;102507.38;;;-5.19;82.30
79415;BME280;68864;44.972;19.612;2024-01-10T01:29:06;102504.03;;;-5.21;82.12
79415;BME280;68864;44.972;19.612;2024-01-10T01:31:34;102508.81;;;-5.23;82.27
79415;BME280;68864;44.972;19.612;2024-01-10T01:34:01;102507.56;;;-5.14;82.49
79415;BME280;68864;44.972;19.612;2024-01-10T01:36:28;102505.69;;;-5.13;82.43
79415;BME280;68864;44.972;19.612;2024-01-10T01:38:54;102503.38;;;-5.23;83.18
79415;BME280;68864;44.972;19.612;2024-01-10T01:41:23;102504.88;;;-5.27;83.18
79415;BME280;68864;44.972;19.612;2024-01-10T01:43:50;102500.88;;;-5.25;83.21
79415;BME280;68864;44.972;19.612;2024-01-10T01:46:17;102505.91;;;-5.22;82.58
79415;BME280;68864;44.972;19.612;2024-01-10T01:48:44;102504.66;;;-5.19;83.17
79415;BME280;68864;44.972;19.612;2024-01-10T01:51:12;102501.09;;;-5.13;83.39
79415;BME280;68864;44.972;19.612;2024-01-10T01:53:40;102502.97;;;-5.20;82.74
79415;BME280;68864;44.972;19.612;2024-01-10T01:56:08;102500.66;;;-5.16;82.92
79415;BME280;68864;44.972;19.612;2024-01-10T01:58:37;102505.50;;;-5.18;82.88
79415;BME280;68864;44.972;19.612;2024-01-10T02:01:04;102499.63;;;-5.22;82.98
79415;BME280;68864;44.972;19.612;2024-01-10T02:03:32;102478.94;;;-5.30;82.71
79415;BME280;68864;44.972;19.612;2024-01-10T02:05:59;102494.59;;;-5.25;82.25
79415;BME280;68864;44.972;19.612;2024-01-10T02:08:28;102492.72;;;-5.25;82.51
79415;BME280;68864;44.972;19.612;2024-01-10T02:10:56;102482.94;;;-5.32;82.26
79415;BME280;68864;44.972;19.612;2024-01-10T02:13:22;102490.25;;;-5.33;82.84
79415;BME280;68864;44.972;19.612;2024-01-10T02:15:51;102491.09;;;-5.32;82.65
79415;BME280;68864;44.972;19.612;2024-01-10T02:18:19;102485.88;;;-5.34;82.81
79415;BME280;68864;44.972;19.612;2024-01-10T02:20:46;102449.94;;;-5.62;83.50
79415;BME280;68864;44.972;19.612;2024-01-10T02:23:13;102485.88;;;-5.34;82.72
79415;BME280;68864;44.972;19.612;2024-01-10T02:25:42;102486.06;;;-5.35;83.31
79415;BME280;68864;44.972;19.612;2024-01-10T02:28:09;102489.19;;;-5.38;83.34
79415;BME280;68864;44.972;19.612;2024-01-10T02:30:36;102484.84;;;-5.46;83.14
79415;BME280;68864;44.972;19.612;2024-01-10T02:33:03;102482.97;;;-5.45;83.11
79415;BME280;68864;44.972;19.612;2024-01-10T02:35:30;102490.28;;;-5.46;83.76
79415;BME280;68864;44.972;19.612;2024-01-10T02:37:58;102481.69;;;-5.49;84.24
79415;BME280;68864;44.972;19.612;2024-01-10T02:40:25;102482.53;;;-5.42;83.88
79415;BME280;68864;44.972;19.612;2024-01-10T02:42:53;102485.66;;;-5.39;83.27
79415;BME280;68864;44.972;19.612;2024-01-10T02:45:19;102475.84;;;-5.33;83.02
79415;BME280;68864;44.972;19.612;2024-01-10T02:47:46;102480.22;;;-5.32;82.60
79415;BME280;68864;44.972;19.612;2024-01-10T02:50:13;102470.78;;;-5.30;81.74
79415;BME280;68864;44.972;19.612;2024-01-10T02:52:40;102472.28;;;-5.34;82.30
79415;BME280;68864;44.972;19.612;2024-01-10T02:55:07;102472.47;;;-5.35;82.24
79415;BME280;68864;44.972;19.612;2024-01-10T02:57:34;102475.19;;;-5.35;82.11
79415;BME280;68864;44.972;19.612;2024-01-10T03:00:03;102468.72;;;-5.34;82.15
79415;BME280;68864;44.972;19.612;2024-01-10T03:02:31;102477.28;;;-5.37;81.90
79415;BME280;68864;44.972;19.612;2024-01-10T03:04:58;102480.84;;;-5.43;82.89
79415;BME280;68864;44.972;19.612;2024-01-10T03:07:25;102483.34;;;-5.42;82.48
79415;BME280;68864;44.972;19.612;2024-01-10T03:09:51;102480.44;;;-5.47;82.46
79415;BME280;68864;44.972;19.612;2024-01-10T03:12:18;102471.25;;;-5.46;82.71
79415;BME280;68864;44.972;19.612;2024-01-10T03:14:45;102471.88;;;-5.50;82.79
79415;BME280;68864;44.972;19.612;2024-01-10T03:17:14;102449.53;;;-5.52;82.70
79415;BME280;68864;44.972;19.612;2024-01-10T03:19:40;102469.13;;;-5.44;82.50
79415;BME280;68864;44.972;19.612;2024-01-10T03:22:09;102468.94;;;-5.49;82.02
79415;BME280;68864;44.972;19.612;2024-01-10T03:24:36;102467.47;;;-5.51;82.07
79415;BME280;68864;44.972;19.612;2024-01-10T03:27:03;102465.59;;;-5.57;81.90
79415;BME280;68864;44.972;19.612;2024-01-10T03:29:30;102469.78;;;-5.62;81.22
79415;BME280;68864;44.972;19.612;2024-01-10T03:31:57;102482.97;;;-5.65;81.43
79415;BME280;68864;44.972;19.612;2024-01-10T03:34:25;102474.59;;;-5.70;81.94
79415;BME280;68864;44.972;19.612;2024-01-10T03:36:52;102474.59;;;-5.70;80.74
79415;BME280;68864;44.972;19.612;2024-01-10T03:39:19;102475.22;;;-5.75;80.68
79415;BME280;68864;44.972;19.612;2024-01-10T03:41:47;102471.69;;;-5.75;81.17
79415;BME280;68864;44.972;19.612;2024-01-10T03:44:14;102469.16;;;-5.77;81.02
79415;BME280;68864;44.972;19.612;2024-01-10T03:46:40;102467.50;;;-5.78;80.15
79415;BME280;68864;44.972;19.612;2024-01-10T03:49:07;102464.38;;;-5.81;80.39
79415;BME280;68864;44.972;19.612;2024-01-10T03:51:36;102464.56;;;-5.83;81.09
79415;BME280;68864;44.972;19.612;2024-01-10T03:54:03;102463.94;;;-5.85;80.58
79415;BME280;68864;44.972;19.612;2024-01-10T03:56:30;102464.78;;;-5.84;80.75
79415;BME280;68864;44.972;19.612;2024-01-10T03:58:57;102464.59;;;-5.96;80.46
79415;BME280;68864;44.972;19.612;2024-01-10T04:01:24;102450.38;;;-6.11;80.67
79415;BME280;68864;44.972;19.612;2024-01-10T04:03:51;102477.53;;;-5.98;79.92
79415;BME280;68864;44.972;19.612;2024-01-10T04:06:18;102476.28;;;-6.02;80.35
79415;BME280;68864;44.972;19.612;2024-01-10T04:08:46;102468.34;;;-6.04;80.24
79415;BME280;68864;44.972;19.612;2024-01-10T04:11:13;102465.03;;;-6.06;80.44
79415;BME280;68864;44.972;19.612;2024-01-10T04:13:40;102474.81;;;-6.05;79.90
79415;BME280;68864;44.972;19.612;2024-01-10T04:16:07;102473.56;;;-6.09;79.52
79415;BME280;68864;44.972;19.612;2024-01-10T04:18:34;102476.06;;;-6.14;80.09
79415;BME280;68864;44.972;19.612;2024-01-10T04:21:01;102482.94;;;-6.18;79.78
79415;BME280;68864;44.972;19.612;2024-01-10T04:23:28;102482.13;;;-6.18;79.96
79415;BME280;68864;44.972;19.612;2024-01-10T04:25:57;102483.56;;;-6.22;79.62
79415;BME280;68864;44.972;19.612;2024-01-10T04:28:24;102486.47;;;-6.24;79.80
79415;BME280;68864;44.972;19.612;2024-01-10T04:30:51;102489.63;;;-6.27;79.67
79415;BME280;68864;44.972;19.612;2024-01-10T04:33:18;102489.81;;;-6.28;80.01
79415;BME280;68864;44.972;19.612;2024-01-10T04:35:45;102490.66;;;-6.28;80.60
79415;BME280;68864;44.972;19.612;2024-01-10T04:38:12;102495.44;;;-6.30;79.70
79415;BME280;68864;44.972;19.612;2024-01-10T04:40:39;102495.22;;;-6.28;79.74
79415;BME280;68864;44.972;19.612;2024-01-10T04:43:07;102503.78;;;-6.25;79.71
79415;BME280;68864;44.972;19.612;2024-01-10T04:45:34;102500.25;;;-6.25;79.67
79415;BME280;68864;44.972;19.612;2024-01-10T04:48:01;102503.78;;;-6.25;79.62
79415;BME280;68864;44.972;19.612;2024-01-10T04:50:28;102511.13;;;-6.25;79.41
79415;BME280;68864;44.972;19.612;2024-01-10T04:52:55;102519.00;;;-6.30;79.07
79415;BME280;68864;44.972;19.612;2024-01-10T04:55:21;102515.69;;;-6.32;79.28
79415;BME280;68864;44.972;19.612;2024-01-10T04:57:48;102519.41;;;-6.40;79.83
79415;BME280;68864;44.972;19.612;2024-01-10T05:00:17;102519.63;;;-6.42;79.73
79415;BME280;68864;44.972;19.612;2024-01-10T05:02:44;102525.03;;;-6.42;79.71
79415;BME280;68864;44.972;19.612;2024-01-10T05:05:11;102528.78;;;-6.43;79.60
79415;BME280;68864;44.972;19.612;2024-01-10T05:07:38;102519.22;;;-6.38;79.53
79415;BME280;68864;44.972;19.612;2024-01-10T05:10:05;102523.13;;;-6.48;79.77
79415;BME280;68864;44.972;19.612;2024-01-10T05:12:32;102525.66;;;-6.46;80.14
79415;BME280;68864;44.972;19.612;2024-01-10T05:14:59;102517.53;;;-6.46;79.83
79415;BME280;68864;44.972;19.612;2024-01-10T05:17:28;102536.31;;;-6.38;79.77
79415;BME280;68864;44.972;19.612;2024-01-10T05:19:54;102532.16;;;-6.34;79.18
79415;BME280;68864;44.972;19.612;2024-01-10T05:22:21;102538.00;;;-6.30;78.88
79415;BME280;68864;44.972;19.612;2024-01-10T05:24:48;102533.22;;;-6.28;79.47
79415;BME280;68864;44.972;19.612;2024-01-10T05:27:15;102538.00;;;-6.30;78.97
79415;BME280;68864;44.972;19.612;2024-01-10T05:29:42;102543.44;;;-6.30;79.09
79415;BME280;68864;44.972;19.612;2024-01-10T05:32:09;102543.88;;;-6.27;78.59
79415;BME280;68864;44.972;19.612;2024-01-10T05:34:38;102545.75;;;-6.27;79.00
79415;BME280;68864;44.972;19.612;2024-01-10T05:37:04;102544.28;;;-6.23;79.27
79415;BME280;68864;44.972;19.612;2024-01-10T05:39:31;102544.47;;;-6.25;78.93
79415;BME280;68864;44.972;19.612;2024-01-10T05:41:58;102534.69;;;-6.26;78.96
79415;BME280;68864;44.972;19.612;2024-01-10T05:44:25;102542.41;;;-6.23;78.96
79415;BME280;68864;44.972;19.612;2024-01-10T05:46:52;102532.56;;;-6.30;79.08
79415;BME280;68864;44.972;19.612;2024-01-10T05:49:19;102531.31;;;-6.34;79.39
79415;BME280;68864;44.972;19.612;2024-01-10T05:51:49;102539.03;;;-6.31;79.18
79415;BME280;68864;44.972;19.612;2024-01-10T05:54:15;102530.50;;;-6.28;79.23
79415;BME280;68864;44.972;19.612;2024-01-10T05:56:43;102533.22;;;-6.28;78.76
79415;BME280;68864;44.972;19.612;2024-01-10T05:59:10;102537.59;;;-6.34;78.32
79415;BME280;68864;44.972;19.612;2024-01-10T06:01:39;102531.72;;;-6.37;78.61
79415;BME280;68864;44.972;19.612;2024-01-10T06:04:05;102536.91;;;-6.43;78.50
79415;BME280;68864;44.972;19.612;2024-01-10T06:06:32;102535.44;;;-6.52;79.01
79415;BME280;68864;44.972;19.612;2024-01-10T06:09:01;102543.16;;;-6.49;78.72
79415;BME280;68864;44.972;19.612;2024-01-10T06:11:28;102553.16;;;-6.49;78.42
79415;BME280;68864;44.972;19.612;2024-01-10T06:13:55;102548.81;;;-6.44;78.11
79415;BME280;68864;44.972;19.612;2024-01-10T06:16:23;102545.28;;;-6.37;78.15
79415;BME280;68864;44.972;19.612;2024-01-10T06:18:50;102545.91;;;-6.35;77.60
79415;BME280;68864;44.972;19.612;2024-01-10T06:21:17;102547.16;;;-6.31;77.38
79415;BME280;68864;44.972;19.612;2024-01-10T06:23:43;102551.53;;;-6.37;77.44
79415;BME280;68864;44.972;19.612;2024-01-10T06:26:12;102556.56;;;-6.34;76.78
79415;BME280;68864;44.972;19.612;2024-01-10T06:28:39;102560.34;;;-6.28;77.26
79415;BME280;68864;44.972;19.612;2024-01-10T06:31:06;102560.53;;;-6.30;76.90
79415;BME280;68864;44.972;19.612;2024-01-10T06:33:33;102563.91;;;-6.21;76.43
79415;BME280;68864;44.972;19.612;2024-01-10T06:36:00;102571.72;;;-5.98;76.21
79415;BME280;68864;44.972;19.612;2024-01-10T06:38:27;102575.06;;;-5.77;74.64
79415;BME280;68864;44.972;19.612;2024-01-10T06:40:54;102571.97;;;-5.47;73.44
79415;BME280;68864;44.972;19.612;2024-01-10T06:43:22;102566.94;;;-5.24;72.73
79415;BME280;68864;44.972;19.612;2024-01-10T06:45:49;102580.28;;;-4.96;72.22
79415;BME280;68864;44.972;19.612;2024-01-10T06:48:16;102578.13;;;-4.61;70.78
79415;BME280;68864;44.972;19.612;2024-01-10T06:50:44;102581.97;;;-4.24;69.48
79415;BME280;68864;44.972;19.612;2024-01-10T06:53:11;102579.00;;;-3.78;69.26
79415;BME280;68864;44.972;19.612;2024-01-10T06:55:39;102580.47;;;-2.58;66.04
79415;BME280;68864;44.972;19.612;2024-01-10T06:58:06;102571.56;;;-0.18;58.90
79415;BME280;68864;44.972;19.612;2024-01-10T07:00:34;102572.50;;;2.42;51.49
79415;BME280;68864;44.972;19.612;2024-01-10T07:03:04;102573.72;;;4.60;47.81
79415;BME280;68864;44.972;19.612;2024-01-10T07:05:31;102565.47;;;6.05;44.01
79415;BME280;68864;44.972;19.612;2024-01-10T07:07:58;102566.78;;;6.96;39.12
79415;BME280;68864;44.972;19.612;2024-01-10T07:10:25;102578.53;;;8.12;38.40
79415;BME280;68864;44.972;19.612;2024-01-10T07:12:53;102562.47;;;9.62;36.54
79415;BME280;68864;44.972;19.612;2024-01-10T07:15:20;102555.97;;;10.80;34.10
79415;BME280;68864;44.972;19.612;2024-01-10T07:17:48;102539.63;;;11.40;30.85
79415;BME280;68864;44.972;19.612;2024-01-10T07:20:15;102550.22;;;10.76;31.53
79415;BME280;68864;44.972;19.612;2024-01-10T07:22:41;102546.34;;;12.35;29.51
79415;BME280;68864;44.972;19.612;2024-01-10T07:25:09;102537.97;;;13.50;30.30
79415;BME280;68864;44.972;19.612;2024-01-10T07:27:39;102528.06;;;14.12;26.78
79415;BME280;68864;44.972;19.612;2024-01-10T07:30:07;102522.78;;;15.26;25.93
79415;BME280;68864;44.972;19.612;2024-01-10T07:32:39;102515.38;;;16.43;25.73
79415;BME280;68864;44.972;19.612;2024-01-10T07:35:09;102508.00;;;16.79;22.73
79415;BME280;68864;44.972;19.612;2024-01-10T07:37:36;102493.22;;;17.72;23.35
79415;BME280;68864;44.972;19.612;2024-01-10T07:40:04;102481.91;;;17.88;21.96
79415;BME280;68864;44.972;19.612;2024-01-10T07:42:32;102484.38;;;18.82;21.96
79415;BME280;68864;44.972;19.612;2024-01-10T07:44:59;102476.47;;;17.48;21.48
79415;BME280;68864;44.972;19.612;2024-01-10T07:47:29;102468.00;;;18.91;21.17
79415;BME280;68864;44.972;19.612;2024-01-10T07:49:56;102459.44;;;19.79;20.36
79415;BME280;68864;44.972;19.612;2024-01-10T07:52:25;102456.50;;;19.98;18.18
79415;BME280;68864;44.972;19.612;2024-01-10T07:54:52;102446.19;;;21.13;18.54
79415;BME280;68864;44.972;19.612;2024-01-10T07:57:19;102445.09;;;21.28;18.45
79415;BME280;68864;44.972;19.612;2024-01-10T07:59:46;102432.66;;;21.40;17.38
79415;BME280;68864;44.972;19.612;2024-01-10T08:02:12;102436.75;;;21.97;17.74
79415;BME280;68864;44.972;19.612;2024-01-10T08:04:39;102447.28;;;21.97;17.35
79415;BME280;68864;44.972;19.612;2024-01-10T08:07:06;102449.81;;;22.12;16.45
79415;BME280;68864;44.972;19.612;2024-01-10T08:09:35;102451.84;;;21.54;14.27
79415;BME280;68864;44.972;19.612;2024-01-10T08:12:03;102457.47;;;23.09;16.48
79415;BME280;68864;44.972;19.612;2024-01-10T08:14:30;102467.25;;;23.44;15.67
79415;BME280;68864;44.972;19.612;2024-01-10T08:16:57;102485.06;;;22.94;15.81
79415;BME280;68864;44.972;19.612;2024-01-10T08:19:24;102475.81;;;23.33;15.11
79415;BME280;68864;44.972;19.612;2024-01-10T08:21:51;102488.56;;;22.56;13.16
79415;BME280;68864;44.972;19.612;2024-01-10T08:24:18;102491.84;;;22.62;15.63
79415;BME280;68864;44.972;19.612;2024-01-10T08:26:47;102494.59;;;22.47;14.71
79415;BME280;68864;44.972;19.612;2024-01-10T08:29:17;102490.03;;;23.26;14.96
79415;BME280;68864;44.972;19.612;2024-01-10T08:31:44;102487.09;;;24.43;13.39
79415;BME280;68864;44.972;19.612;2024-01-10T08:34:11;102501.03;;;23.63;13.11
79415;BME280;68864;44.972;19.612;2024-01-10T08:36:38;102508.81;;;25.06;14.67
79415;BME280;68864;44.972;19.612;2024-01-10T08:39:05;102500.63;;;25.67;13.82
79415;BME280;68864;44.972;19.612;2024-01-10T08:41:32;102506.22;;;26.22;13.14
79415;BME280;68864;44.972;19.612;2024-01-10T08:44:00;102506.91;;;26.33;12.56
79415;BME280;68864;44.972;19.612;2024-01-10T08:46:28;102522.84;;;26.68;12.50
79415;BME280;68864;44.972;19.612;2024-01-10T08:48:54;102524.56;;;27.50;11.96
79415;BME280;68864;44.972;19.612;2024-01-10T08:51:22;102532.69;;;28.01;11.54
79415;BME280;68864;44.972;19.612;2024-01-10T08:53:48;102532.81;;;28.80;9.79
79415;BME280;68864;44.972;19.612;2024-01-10T08:56:15;102535.59;;;29.40;11.19
79415;BME280;68864;44.972;19.612;2024-01-10T08:58:42;102524.84;;;29.44;11.02
79415;BME280;68864;44.972;19.612;2024-01-10T09:01:11;102528.38;;;29.32;10.15
79415;BME280;68864;44.972;19.612;2024-01-10T09:03:38;102522.06;;;29.56;11.00
79415;BME280;68864;44.972;19.612;2024-01-10T09:06:05;102513.16;;;29.99;10.71
79415;BME280;68864;44.972;19.612;2024-01-10T09:08:33;102506.06;;;29.72;10.58
79415;BME280;68864;44.972;19.612;2024-01-10T09:11:00;102516.22;;;29.76;9.03
79415;BME280;68864;44.972;19.612;2024-01-10T09:13:27;102515.09;;;30.89;10.19
79415;BME280;68864;44.972;19.612;2024-01-10T09:15:53;102510.88;;;31.19;9.37
79415;BME280;68864;44.972;19.612;2024-01-10T09:18:22;102517.25;;;30.72;9.69
79415;BME280;68864;44.972;19.612;2024-01-10T09:20:49;102502.38;;;30.61;10.21
79415;BME280;68864;44.972;19.612;2024-01-10T09:23:15;102496.28;;;29.01;8.98
79415;BME280;68864;44.972;19.612;2024-01-10T09:25:42;102508.47;;;30.51;11.08
79415;BME280;68864;44.972;19.612;2024-01-10T09:28:09;102509.03;;;28.80;9.60
79415;BME280;68864;44.972;19.612;2024-01-10T09:30:36;102510.81;;;29.94;10.85
79415;BME280;68864;44.972;19.612;2024-01-10T09:33:02;102524.31;;;28.73;10.47
79415;BME280;68864;44.972;19.612;2024-01-10T09:35:31;102518.16;;;28.35;10.87
79415;BME280;68864;44.972;19.612;2024-01-10T09:37:58;102519.97;;;29.41;10.88
79415;BME280;68864;44.972;19.612;2024-01-10T09:40:25;102532.50;;;29.31;10.42
79415;BME280;68864;44.972;19.612;2024-01-10T09:42:52;102528.34;;;29.15;10.31
79415;BME280;68864;44.972;19.612;2024-01-10T09:45:21;102535.53;;;28.88;10.53
79415;BME280;68864;44.972;19.612;2024-01-10T09:47:52;102532.50;;;29.31;10.09
79415;BME280;68864;44.972;19.612;2024-01-10T09:50:20;102531.78;;;28.91;10.39
79415;BME280;68864;44.972;19.612;2024-01-10T09:52:51;102528.75;;;27.45;10.89
79415;BME280;68864;44.972;19.612;2024-01-10T09:55:21;102534.16;;;28.76;10.40
79415;BME280;68864;44.972;19.612;2024-01-10T09:57:48;102527.44;;;29.38;10.33
79415;BME280;68864;44.972;19.612;2024-01-10T10:00:16;102533.84;;;28.70;10.91
79415;BME280;68864;44.972;19.612;2024-01-10T10:02:45;102535.16;;;27.53;11.08
79415;BME280;68864;44.972;19.612;2024-01-10T10:05:14;102537.88;;;27.63;11.34
79415;BME280;68864;44.972;19.612;2024-01-10T10:07:45;102538.06;;;27.22;11.01
79415;BME280;68864;44.972;19.612;2024-01-10T10:10:14;102540.66;;;27.67;10.82
79415;BME280;68864;44.972;19.612;2024-01-10T10:12:42;102553.63;;;28.45;10.87
79415;BME280;68864;44.972;19.612;2024-01-10T10:15:11;102575.41;;;28.19;11.88
79415;BME280;68864;44.972;19.612;2024-01-10T10:17:38;102606.56;;;28.64;11.34
79415;BME280;68864;44.972;19.612;2024-01-10T10:20:12;102688.38;;;27.41;11.73
79415;BME280;68864;44.972;19.612;2024-01-10T10:22:40;102760.50;;;27.66;11.56
79415;BME280;68864;44.972;19.612;2024-01-10T10:25:18;102743.84;;;27.24;11.93
79415;BME280;68864;44.972;19.612;2024-01-10T10:27:45;102678.25;;;26.06;12.30
79415;BME280;68864;44.972;19.612;2024-01-10T10:30:13;102598.88;;;26.32;11.92
79415;BME280;68864;44.972;19.612;2024-01-10T10:32:40;102537.94;;;26.35;11.89
79415;BME280;68864;44.972;19.612;2024-01-10T10:35:07;102533.22;;;26.18;11.29
79415;BME280;68864;44.972;19.612;2024-01-10T10:37:34;102523.91;;;26.10;12.71
79415;BME280;68864;44.972;19.612;2024-01-10T10:40:01;102516.59;;;25.61;13.19
79415;BME280;68864;44.972;19.612;2024-01-10T10:42:31;102500.91;;;25.28;13.04
79415;BME280;68864;44.972;19.612;2024-01-10T10:45:02;102496.56;;;25.09;12.80
79415;BME280;68864;44.972;19.612;2024-01-10T10:47:31;102502.78;;;24.90;13.70
79415;BME280;68864;44.972;19.612;2024-01-10T10:50:05;102488.03;;;22.29;15.45
79415;BME280;68864;44.972;19.612;2024-01-10T10:52:34;102482.91;;;19.11;18.20
79415;BME280;68864;44.972;19.612;2024-01-10T10:55:02;102495.66;;;16.43;20.69
79415;BME280;68864;44.972;19.612;2024-01-10T10:57:32;102487.22;;;14.85;22.54
79415;BME280;68864;44.972;19.612;2024-01-10T10:59:59;102488.44;;;13.34;24.20
79415;BME280;68864;44.972;19.612;2024-01-10T11:02:27;102493.53;;;12.25;26.34
79415;BME280;68864;44.972;19.612;2024-01-10T11:04:54;102491.25;;;11.70;26.68
79415;BME280;68864;44.972;19.612;2024-01-10T11:07:22;102488.28;;;11.19;27.26
79415;BME280;68864;44.972;19.612;2024-01-10T11:09:50;102493.09;;;10.51;28.19
79415;BME280;68864;44.972;19.612;2024-01-10T11:12:27;102483.44;;;9.99;29.26
79415;BME280;68864;44.972;19.612;2024-01-10T11:15:14;102481.94;;;9.38;30.47
79415;BME280;68864;44.972;19.612;2024-01-10T11:18:13;102488.31;;;8.65;30.55
79415;BME280;68864;44.972;19.612;2024-01-10T11:20:59;102488.06;;;8.11;32.83
79415;BME280;68864;44.972;19.612;2024-01-10T11:23:38;102486.88;;;7.74;33.34
79415;BME280;68864;44.972;19.612;2024-01-10T11:26:06;102478.59;;;7.50;33.40
79415;BME280;68864;44.972;19.612;2024-01-10T11:28:35;102471.69;;;7.24;34.27
79415;BME280;68864;44.972;19.612;2024-01-10T11:31:06;102471.81;;;6.85;35.29
79415;BME280;68864;44.972;19.612;2024-01-10T11:33:34;102467.13;;;6.52;35.48
79415;BME280;68864;44.972;19.612;2024-01-10T11:36:22;102459.28;;;6.30;37.28
79415;BME280;68864;44.972;19.612;2024-01-10T11:38:54;102465.03;;;5.99;36.91
79415;BME280;68864;44.972;19.612;2024-01-10T11:41:23;102470.31;;;5.86;37.03
79415;BME280;68864;44.972;19.612;2024-01-10T11:46:53;102466.25;;;5.09;39.09
79415;BME280;68864;44.972;19.612;2024-01-10T11:49:22;102469.03;;;4.94;39.32
79415;BME280;68864;44.972;19.612;2024-01-10T11:51:52;102463.25;;;4.75;39.78
79415;BME280;68864;44.972;19.612;2024-01-10T11:54:40;102466.84;;;4.65;40.78
79415;BME280;68864;44.972;19.612;2024-01-10T11:57:14;102465.19;;;4.59;39.44
79415;BME280;68864;44.972;19.612;2024-01-10T11:59:45;102465.47;;;4.53;39.78
79415;BME280;68864;44.972;19.612;2024-01-10T12:02:14;102464.38;;;4.44;39.95
79415;BME280;68864;44.972;19.612;2024-01-10T12:04:41;102462.44;;;4.29;40.41
79415;BME280;68864;44.972;19.612;2024-01-10T12:07:08;102458.56;;;4.20;40.74
79415;BME280;68864;44.972;19.612;2024-01-10T12:09:35;102465.44;;;3.92;41.71
79415;BME280;68864;44.972;19.612;2024-01-10T12:12:02;102457.97;;;3.82;41.61
79415;BME280;68864;44.972;19.612;2024-01-10T12:14:29;102451.25;;;3.53;42.12
79415;BME280;68864;44.972;19.612;2024-01-10T12:16:57;102450.97;;;3.44;42.31
79415;BME280;68864;44.972;19.612;2024-01-10T12:19:25;102453.47;;;3.51;41.98
79415;BME280;68864;44.972;19.612;2024-01-10T12:21:52;102451.03;;;3.07;42.25
79415;BME280;68864;44.972;19.612;2024-01-10T12:24:19;102449.88;;;2.93;42.61
79415;BME280;68864;44.972;19.612;2024-01-10T12:26:46;102452.25;;;2.37;44.53
79415;BME280;68864;44.972;19.612;2024-01-10T12:29:17;102454.50;;;2.46;44.84
79415;BME280;68864;44.972;19.612;2024-01-10T12:31:45;102449.94;;;2.61;43.42
79415;BME280;68864;44.972;19.612;2024-01-10T12:34:12;102448.63;;;2.32;43.73
79415;BME280;68864;44.972;19.612;2024-01-10T12:36:41;102441.44;;;2.31;44.07
79415;BME280;68864;44.972;19.612;2024-01-10T12:39:08;102446.63;;;2.27;45.47
79415;BME280;68864;44.972;19.612;2024-01-10T12:41:35;102444.50;;;2.34;44.48
79415;BME280;68864;44.972;19.612;2024-01-10T12:44:03;102453.00;;;2.33;44.34
79415;BME280;68864;44.972;19.612;2024-01-10T12:46:32;102451.09;;;2.33;43.75